Atlantic Island — C4VM2 — position and weather

sailwx.info

Track history (hours):
 
Tides and Currents Weather Stations Pressure Air Temp Water Temp Dewpoint Dewpoint Depression Visibility Wind Speed Wind Dir Waves Ship Positions

Atlantic Island

Last reported at 2015-Jan-28 22:04 UTC. Time now 2015-Jan-31 11:38 UTC.
Position N 35°58' W 005°14'.

Length 95 m; draft 5.9 m.

Type: Cargo ship. MMSI: 210754000.

Date/timePositionNaut miles runAvg speedWind from/ knotsBaromVisibWave heightAir tempDewpointWater temp
2015-Jan-28 22:04N 35°58' W 005°14'612.4
2015-Jan-28 21:33N 35°57' W 005°22'200 7.8
2015-Jan-27 20:05N 37°16' W 009°11'6 9.9
2015-Jan-27 19:26N 37°22' W 009°09'10 9.9
2015-Jan-27 18:28N 37°32' W 009°08'910.0
2015-Jan-27 17:33N 37°41' W 009°06'10 9.9
2015-Jan-27 16:33N 37°51' W 009°05'10 9.8
2015-Jan-27 15:33N 38°00' W 009°03'9 9.6
2015-Jan-27 14:33N 38°10' W 009°02'10 9.8
2015-Jan-27 13:33N 38°19' W 008°60'1010.0
2015-Jan-27 12:33N 38°29' W 008°56'4 3.1
2015-Jan-27 11:22N 38°31' W 008°52'0 0.0
2015-Jan-27 10:31N 38°31' W 008°52'0 0.0
2015-Jan-27 09:22N 38°31' W 008°52'0 0.0
2015-Jan-27 08:10N 38°31' W 008°52'0 0.0
2015-Jan-27 07:28N 38°31' W 008°52'0 0.0
2015-Jan-27 06:28N 38°31' W 008°52'0 0.0
2015-Jan-27 05:28N 38°31' W 008°52'0 0.0
2015-Jan-27 04:31N 38°31' W 008°52'0 0.0
2015-Jan-27 03:28N 38°31' W 008°52'0 0.0
2015-Jan-27 02:28N 38°31' W 008°52'0 0.0
2015-Jan-27 01:22N 38°31' W 008°52'0 0.0
2015-Jan-27 00:16N 38°31' W 008°52'0 0.0
2015-Jan-26 23:22N 38°31' W 008°52'0 0.0
2015-Jan-26 22:31N 38°31' W 008°52'0 0.0
2015-Jan-26 21:25N 38°31' W 008°52'0 0.0
2015-Jan-26 19:25N 38°31' W 008°52'0 0.0
2015-Jan-26 18:10N 38°31' W 008°52'0 0.0
2015-Jan-26 17:28N 38°31' W 008°52'0 0.0
2015-Jan-26 16:31N 38°31' W 008°52'0 0.0
2015-Jan-26 15:19N 38°31' W 008°52'0 0.0
2015-Jan-26 13:28N 38°31' W 008°52'0 0.0
2015-Jan-26 12:28N 38°31' W 008°52'0 0.0
2015-Jan-26 11:33N 38°31' W 008°52'0 0.0
2015-Jan-26 10:33N 38°31' W 008°52'0 0.0
2015-Jan-26 09:27N 38°31' W 008°52'0 0.0
2015-Jan-26 08:33N 38°31' W 008°52'0 0.0
2015-Jan-26 07:30N 38°31' W 008°52'0 0.0
2015-Jan-26 06:33N 38°31' W 008°52'0 0.0
2015-Jan-26 05:33N 38°31' W 008°52'0 0.0
2015-Jan-26 04:21N 38°31' W 008°52'0 0.0
2015-Jan-26 03:27N 38°31' W 008°52'0 0.0
2015-Jan-26 02:30N 38°31' W 008°52'0 0.0
2015-Jan-26 01:33N 38°31' W 008°52'0 0.0
2015-Jan-26 00:27N 38°31' W 008°52'0 0.0
2015-Jan-25 23:30N 38°31' W 008°52'0 0.0
2015-Jan-25 22:33N 38°31' W 008°52'0 0.0
2015-Jan-25 21:33N 38°31' W 008°52'0 0.0
2015-Jan-25 20:33N 38°31' W 008°52'0 0.0
2015-Jan-25 19:27N 38°31' W 008°52'0 0.0
2015-Jan-25 18:30N 38°31' W 008°52'0 0.0
2015-Jan-25 17:24N 38°31' W 008°52'0 0.0
2015-Jan-25 16:24N 38°31' W 008°52'0 0.0
2015-Jan-25 15:30N 38°31' W 008°52'0 0.0
2015-Jan-25 14:21N 38°31' W 008°52'0 0.0
2015-Jan-25 13:30N 38°31' W 008°52'0 0.0
2015-Jan-25 12:33N 38°31' W 008°52'0 0.0
2015-Jan-25 11:33N 38°31' W 008°52'0 0.0
2015-Jan-25 10:30N 38°31' W 008°52'0 0.0
2015-Jan-25 09:27N 38°31' W 008°52'0 0.0
2015-Jan-25 08:30N 38°31' W 008°52'0 0.0
2015-Jan-25 07:33N 38°31' W 008°52'0 0.0
2015-Jan-25 06:33N 38°31' W 008°52'0 0.0
2015-Jan-25 05:30N 38°31' W 008°52'0 0.0
2015-Jan-25 04:33N 38°31' W 008°52'0 0.0
2015-Jan-25 03:33N 38°31' W 008°52'0 0.0
2015-Jan-25 02:27N 38°31' W 008°52'0 0.0
2015-Jan-25 01:33N 38°31' W 008°52'0 0.0
2015-Jan-25 00:33N 38°31' W 008°52'0 0.0
2015-Jan-24 23:32N 38°31' W 008°52'0 0.0
2015-Jan-24 22:32N 38°31' W 008°52'0 0.0
2015-Jan-24 21:05N 38°31' W 008°52'0 0.0
2015-Jan-24 20:26N 38°31' W 008°52'0 0.0
2015-Jan-24 19:32N 38°31' W 008°52'0 0.0
2015-Jan-24 18:32N 38°31' W 008°52'0 0.0
2015-Jan-24 17:17N 38°31' W 008°52'0 0.0
2015-Jan-24 16:29N 38°31' W 008°52'0 0.0
2015-Jan-24 15:29N 38°31' W 008°52'0 0.0
2015-Jan-24 14:32N 38°31' W 008°52'0 0.0
2015-Jan-24 10:11N 38°31' W 008°52'0 0.0
2015-Jan-24 09:26N 38°31' W 008°52'0 0.0
2015-Jan-24 08:32N 38°31' W 008°52'0 0.0
2015-Jan-24 07:32N 38°31' W 008°52'0 0.0
2015-Jan-24 06:32N 38°31' W 008°52'0 0.0
2015-Jan-24 05:20N 38°31' W 008°52'0 0.0
2015-Jan-24 04:32N 38°31' W 008°52'0 0.0
2015-Jan-24 03:32N 38°31' W 008°52'0 0.0
2015-Jan-24 02:29N 38°31' W 008°52'1 1.1
2015-Jan-24 01:28N 38°31' W 008°54'910.3
2015-Jan-24 00:33N 38°23' W 008°60'1110.5
2015-Jan-23 23:33N 38°13' W 009°02'1010.1
2015-Jan-23 22:33N 38°03' W 009°05'10 9.8
2015-Jan-23 21:33N 37°53' W 009°07'10 9.8
2015-Jan-23 20:33N 37°43' W 009°10'10 9.7
2015-Jan-23 19:33N 37°34' W 009°12'  
Track history (hours):
 
Tides and Currents Weather Stations Pressure Air Temp Water Temp Dewpoint Dewpoint Depression Visibility Wind Speed Wind Dir Waves Ship Positions

Atlantic Island

Last reported at 2015-Jan-28 22:04 UTC. Time now 2015-Jan-31 11:38 UTC.
Position N 35°58' W 005°14'.

Length 95 m; draft 5.9 m.

Type: Cargo ship. MMSI: 210754000.

Date/timePositionNaut miles runAvg speedWind from/ knotsBaromVisibWave heightAir tempDewpointWater temp
2015-Jan-28 22:04N 35°58' W 005°14'612.4
2015-Jan-28 21:33N 35°57' W 005°22'200 7.8
2015-Jan-27 20:05N 37°16' W 009°11'6 9.9
2015-Jan-27 19:26N 37°22' W 009°09'10 9.9
2015-Jan-27 18:28N 37°32' W 009°08'910.0
2015-Jan-27 17:33N 37°41' W 009°06'10 9.9
2015-Jan-27 16:33N 37°51' W 009°05'10 9.8
2015-Jan-27 15:33N 38°00' W 009°03'9 9.6
2015-Jan-27 14:33N 38°10' W 009°02'10 9.8
2015-Jan-27 13:33N 38°19' W 008°60'1010.0
2015-Jan-27 12:33N 38°29' W 008°56'4 3.1
2015-Jan-27 11:22N 38°31' W 008°52'0 0.0
2015-Jan-27 10:31N 38°31' W 008°52'0 0.0
2015-Jan-27 09:22N 38°31' W 008°52'0 0.0
2015-Jan-27 08:10N 38°31' W 008°52'0 0.0
2015-Jan-27 07:28N 38°31' W 008°52'0 0.0
2015-Jan-27 06:28N 38°31' W 008°52'0 0.0
2015-Jan-27 05:28N 38°31' W 008°52'0 0.0
2015-Jan-27 04:31N 38°31' W 008°52'0 0.0
2015-Jan-27 03:28N 38°31' W 008°52'0 0.0
2015-Jan-27 02:28N 38°31' W 008°52'0 0.0
2015-Jan-27 01:22N 38°31' W 008°52'0 0.0
2015-Jan-27 00:16N 38°31' W 008°52'0 0.0
2015-Jan-26 23:22N 38°31' W 008°52'0 0.0
2015-Jan-26 22:31N 38°31' W 008°52'0 0.0
2015-Jan-26 21:25N 38°31' W 008°52'0 0.0
2015-Jan-26 19:25N 38°31' W 008°52'0 0.0
2015-Jan-26 18:10N 38°31' W 008°52'0 0.0
2015-Jan-26 17:28N 38°31' W 008°52'0 0.0
2015-Jan-26 16:31N 38°31' W 008°52'0 0.0
2015-Jan-26 15:19N 38°31' W 008°52'0 0.0
2015-Jan-26 13:28N 38°31' W 008°52'0 0.0
2015-Jan-26 12:28N 38°31' W 008°52'0 0.0
2015-Jan-26 11:33N 38°31' W 008°52'0 0.0
2015-Jan-26 10:33N 38°31' W 008°52'0 0.0
2015-Jan-26 09:27N 38°31' W 008°52'0 0.0
2015-Jan-26 08:33N 38°31' W 008°52'0 0.0
2015-Jan-26 07:30N 38°31' W 008°52'0 0.0
2015-Jan-26 06:33N 38°31' W 008°52'0 0.0
2015-Jan-26 05:33N 38°31' W 008°52'0 0.0
2015-Jan-26 04:21N 38°31' W 008°52'0 0.0
2015-Jan-26 03:27N 38°31' W 008°52'0 0.0
2015-Jan-26 02:30N 38°31' W 008°52'0 0.0
2015-Jan-26 01:33N 38°31' W 008°52'0 0.0
2015-Jan-26 00:27N 38°31' W 008°52'0 0.0
2015-Jan-25 23:30N 38°31' W 008°52'0 0.0
2015-Jan-25 22:33N 38°31' W 008°52'0 0.0
2015-Jan-25 21:33N 38°31' W 008°52'0 0.0
2015-Jan-25 20:33N 38°31' W 008°52'0 0.0
2015-Jan-25 19:27N 38°31' W 008°52'0 0.0
2015-Jan-25 18:30N 38°31' W 008°52'0 0.0
2015-Jan-25 17:24N 38°31' W 008°52'0 0.0
2015-Jan-25 16:24N 38°31' W 008°52'0 0.0
2015-Jan-25 15:30N 38°31' W 008°52'0 0.0
2015-Jan-25 14:21N 38°31' W 008°52'0 0.0
2015-Jan-25 13:30N 38°31' W 008°52'0 0.0
2015-Jan-25 12:33N 38°31' W 008°52'0 0.0
2015-Jan-25 11:33N 38°31' W 008°52'0 0.0
2015-Jan-25 10:30N 38°31' W 008°52'0 0.0
2015-Jan-25 09:27N 38°31' W 008°52'0 0.0
2015-Jan-25 08:30N 38°31' W 008°52'0 0.0
2015-Jan-25 07:33N 38°31' W 008°52'0 0.0
2015-Jan-25 06:33N 38°31' W 008°52'0 0.0
2015-Jan-25 05:30N 38°31' W 008°52'0 0.0
2015-Jan-25 04:33N 38°31' W 008°52'0 0.0
2015-Jan-25 03:33N 38°31' W 008°52'0 0.0
2015-Jan-25 02:27N 38°31' W 008°52'0 0.0
2015-Jan-25 01:33N 38°31' W 008°52'0 0.0
2015-Jan-25 00:33N 38°31' W 008°52'0 0.0
2015-Jan-24 23:32N 38°31' W 008°52'0 0.0
2015-Jan-24 22:32N 38°31' W 008°52'0 0.0
2015-Jan-24 21:05N 38°31' W 008°52'0 0.0
2015-Jan-24 20:26N 38°31' W 008°52'0 0.0
2015-Jan-24 19:32N 38°31' W 008°52'0 0.0
2015-Jan-24 18:32N 38°31' W 008°52'0 0.0
2015-Jan-24 17:17N 38°31' W 008°52'0 0.0
2015-Jan-24 16:29N 38°31' W 008°52'0 0.0
2015-Jan-24 15:29N 38°31' W 008°52'0 0.0
2015-Jan-24 14:32N 38°31' W 008°52'0 0.0
2015-Jan-24 10:11N 38°31' W 008°52'0 0.0
2015-Jan-24 09:26N 38°31' W 008°52'0 0.0
2015-Jan-24 08:32N 38°31' W 008°52'0 0.0
2015-Jan-24 07:32N 38°31' W 008°52'0 0.0
2015-Jan-24 06:32N 38°31' W 008°52'0 0.0
2015-Jan-24 05:20N 38°31' W 008°52'0 0.0
2015-Jan-24 04:32N 38°31' W 008°52'0 0.0
2015-Jan-24 03:32N 38°31' W 008°52'0 0.0
2015-Jan-24 02:29N 38°31' W 008°52'1 1.1
2015-Jan-24 01:28N 38°31' W 008°54'910.3
2015-Jan-24 00:33N 38°23' W 008°60'1110.5
2015-Jan-23 23:33N 38°13' W 009°02'1010.1
2015-Jan-23 22:33N 38°03' W 009°05'10 9.8
2015-Jan-23 21:33N 37°53' W 009°07'10 9.8
2015-Jan-23 20:33N 37°43' W 009°10'10 9.7
2015-Jan-23 19:33N 37°34' W 009°12'  

Dump ship's entire track history